sensor_id;sensor_type;location;lat;lon;timestamp;pressure;altitude;pressure_sealevel;temperature;humidity
79273;BME280;68718;-19.302;146.788;2023-04-06T00:01:43;101190.57;;;29.75;74.55
79273;BME280;68718;-19.302;146.788;2023-04-06T00:04:09;101188.43;;;30.14;74.73
79273;BME280;68718;-19.302;146.788;2023-04-06T00:06:34;101185.18;;;30.67;72.58
79273;BME280;68718;-19.302;146.788;2023-04-06T00:09:00;101184.75;;;29.99;74.86
79273;BME280;68718;-19.302;146.788;2023-04-06T00:11:25;101184.08;;;30.74;75.50
79273;BME280;68718;-19.302;146.788;2023-04-06T00:13:50;101177.57;;;30.95;73.31
79273;BME280;68718;-19.302;146.788;2023-04-06T00:16:15;101181.16;;;30.31;75.24
79273;BME280;68718;-19.302;146.788;2023-04-06T00:18:41;101176.99;;;30.18;76.75
79273;BME280;68718;-19.302;146.788;2023-04-06T00:21:06;101171.25;;;30.13;75.95
79273;BME280;68718;-19.302;146.788;2023-04-06T00:23:32;101172.18;;;30.22;75.86
79273;BME280;68718;-19.302;146.788;2023-04-06T00:25:56;101163.73;;;31.38;70.07
79273;BME280;68718;-19.302;146.788;2023-04-06T00:28:22;101162.12;;;31.42;69.86
79273;BME280;68718;-19.302;146.788;2023-04-06T00:30:47;101162.25;;;31.65;67.10
79273;BME280;68718;-19.302;146.788;2023-04-06T00:33:12;101155.55;;;31.69;67.93
79273;BME280;68718;-19.302;146.788;2023-04-06T00:35:38;101155.45;;;31.95;67.31
79273;BME280;68718;-19.302;146.788;2023-04-06T00:38:03;101153.63;;;31.23;69.56
79273;BME280;68718;-19.302;146.788;2023-04-06T00:40:28;101150.93;;;31.20;69.17
79273;BME280;68718;-19.302;146.788;2023-04-06T00:42:54;101145.96;;;31.42;68.97
79273;BME280;68718;-19.302;146.788;2023-04-06T00:45:19;101143.86;;;31.64;66.45
79273;BME280;68718;-19.302;146.788;2023-04-06T00:47:46;101137.90;;;31.81;65.93
79273;BME280;68718;-19.302;146.788;2023-04-06T00:50:10;101133.28;;;32.31;63.58
79273;BME280;68718;-19.302;146.788;2023-04-06T00:52:36;101129.94;;;31.68;67.26
79273;BME280;68718;-19.302;146.788;2023-04-06T00:55:01;101127.33;;;31.82;67.67
79273;BME280;68718;-19.302;146.788;2023-04-06T00:57:26;101126.56;;;31.65;67.52
79273;BME280;68718;-19.302;146.788;2023-04-06T00:59:53;101121.91;;;30.99;67.18
79273;BME280;68718;-19.302;146.788;2023-04-06T01:02:17;101119.79;;;31.45;67.09
79273;BME280;68718;-19.302;146.788;2023-04-06T01:04:43;101116.85;;;31.73;66.89
79273;BME280;68718;-19.302;146.788;2023-04-06T01:07:08;101118.02;;;31.75;64.31
79273;BME280;68718;-19.302;146.788;2023-04-06T01:09:34;101120.05;;;31.94;65.77
79273;BME280;68718;-19.302;146.788;2023-04-06T01:11:58;101118.96;;;31.55;66.73
79273;BME280;68718;-19.302;146.788;2023-04-06T01:14:24;101117.13;;;31.18;67.62
79273;BME280;68718;-19.302;146.788;2023-04-06T01:16:49;101114.86;;;31.31;66.02
79273;BME280;68718;-19.302;146.788;2023-04-06T01:19:15;101115.47;;;31.90;64.82
79273;BME280;68718;-19.302;146.788;2023-04-06T01:21:41;101114.24;;;31.88;64.04
79273;BME280;68718;-19.302;146.788;2023-04-06T01:24:07;101103.77;;;32.37;62.67
79273;BME280;68718;-19.302;146.788;2023-04-06T01:26:31;101101.76;;;32.22;63.30
79273;BME280;68718;-19.302;146.788;2023-04-06T01:28:56;101101.04;;;31.55;65.66
79273;BME280;68718;-19.302;146.788;2023-04-06T01:31:21;101096.07;;;32.14;64.25
79273;BME280;68718;-19.302;146.788;2023-04-06T01:33:47;101088.94;;;30.98;69.72
79273;BME280;68718;-19.302;146.788;2023-04-06T01:36:12;101081.55;;;32.13;64.88
79273;BME280;68718;-19.302;146.788;2023-04-06T01:38:37;101074.29;;;31.59;64.85
79273;BME280;68718;-19.302;146.788;2023-04-06T01:41:03;101072.23;;;31.08;67.10
79273;BME280;68718;-19.302;146.788;2023-04-06T01:43:28;101070.01;;;30.56;69.62
79273;BME280;68718;-19.302;146.788;2023-04-06T01:45:54;101068.25;;;31.72;66.71
79273;BME280;68718;-19.302;146.788;2023-04-06T01:48:20;101069.35;;;31.55;65.67
79273;BME280;68718;-19.302;146.788;2023-04-06T01:50:44;101059.31;;;32.09;63.94
79273;BME280;68718;-19.302;146.788;2023-04-06T01:53:10;101057.57;;;31.78;65.75
79273;BME280;68718;-19.302;146.788;2023-04-06T01:55:35;101054.36;;;32.38;63.50
79273;BME280;68718;-19.302;146.788;2023-04-06T01:58:00;101050.81;;;31.97;65.39
79273;BME280;68718;-19.302;146.788;2023-04-06T02:00:26;101051.69;;;32.13;64.56
79273;BME280;68718;-19.302;146.788;2023-04-06T02:02:51;101039.36;;;33.50;61.78
79273;BME280;68718;-19.302;146.788;2023-04-06T02:05:17;101031.79;;;32.49;63.85
79273;BME280;68718;-19.302;146.788;2023-04-06T02:07:42;101039.10;;;32.01;64.23
79273;BME280;68718;-19.302;146.788;2023-04-06T02:10:12;101034.00;;;31.86;64.20
79273;BME280;68718;-19.302;146.788;2023-04-06T02:12:33;101030.00;;;31.09;65.30
79273;BME280;68718;-19.302;146.788;2023-04-06T02:14:58;101027.79;;;31.76;63.81
79273;BME280;68718;-19.302;146.788;2023-04-06T02:17:24;101027.32;;;32.82;60.24
79273;BME280;68718;-19.302;146.788;2023-04-06T02:19:49;101019.50;;;32.12;63.24
79273;BME280;68718;-19.302;146.788;2023-04-06T02:22:14;101015.46;;;32.04;63.81
79273;BME280;68718;-19.302;146.788;2023-04-06T02:24:40;101013.19;;;32.14;62.72
79273;BME280;68718;-19.302;146.788;2023-04-06T02:27:05;101008.90;;;32.25;62.65
79273;BME280;68718;-19.302;146.788;2023-04-06T02:29:30;101007.64;;;32.91;61.32
79273;BME280;68718;-19.302;146.788;2023-04-06T02:31:56;101007.08;;;32.50;62.81
79273;BME280;68718;-19.302;146.788;2023-04-06T02:34:21;100996.74;;;33.26;60.13
79273;BME280;68718;-19.302;146.788;2023-04-06T02:36:47;100993.04;;;33.38;59.72
79273;BME280;68718;-19.302;146.788;2023-04-06T02:39:12;100986.37;;;32.91;61.07
79273;BME280;68718;-19.302;146.788;2023-04-06T02:41:37;100980.72;;;33.27;59.82
79273;BME280;68718;-19.302;146.788;2023-04-06T02:44:03;100974.17;;;33.55;59.17
79273;BME280;68718;-19.302;146.788;2023-04-06T02:46:28;100973.12;;;33.22;58.87
79273;BME280;68718;-19.302;146.788;2023-04-06T02:48:54;100969.91;;;32.49;59.63
79273;BME280;68718;-19.302;146.788;2023-04-06T02:51:19;100962.85;;;32.59;61.81
79273;BME280;68718;-19.302;146.788;2023-04-06T02:53:44;100963.63;;;33.24;62.29
79273;BME280;68718;-19.302;146.788;2023-04-06T02:56:10;100960.68;;;33.36;60.14
79273;BME280;68718;-19.302;146.788;2023-04-06T02:58:35;100963.03;;;32.71;62.28
79273;BME280;68718;-19.302;146.788;2023-04-06T03:01:01;100958.42;;;32.79;58.28
79273;BME280;68718;-19.302;146.788;2023-04-06T03:03:26;100957.26;;;32.81;59.04
79273;BME280;68718;-19.302;146.788;2023-04-06T03:05:51;100950.59;;;33.05;59.81
79273;BME280;68718;-19.302;146.788;2023-04-06T03:08:16;100951.08;;;33.39;58.06
79273;BME280;68718;-19.302;146.788;2023-04-06T03:10:41;100950.31;;;33.06;59.03
79273;BME280;68718;-19.302;146.788;2023-04-06T03:13:07;100942.59;;;32.94;59.74
79273;BME280;68718;-19.302;146.788;2023-04-06T03:15:32;100936.61;;;32.88;58.92
79273;BME280;68718;-19.302;146.788;2023-04-06T03:17:58;100938.15;;;32.73;59.73
79273;BME280;68718;-19.302;146.788;2023-04-06T03:20:23;100940.99;;;32.05;61.86
79273;BME280;68718;-19.302;146.788;2023-04-06T03:22:48;100937.07;;;33.13;60.96
79273;BME280;68718;-19.302;146.788;2023-04-06T03:25:15;100933.24;;;32.89;59.65
79273;BME280;68718;-19.302;146.788;2023-04-06T03:27:39;100929.71;;;32.86;61.10
79273;BME280;68718;-19.302;146.788;2023-04-06T03:30:05;100923.78;;;33.43;60.67
79273;BME280;68718;-19.302;146.788;2023-04-06T03:32:30;100923.91;;;33.13;62.16
79273;BME280;68718;-19.302;146.788;2023-04-06T03:34:55;100925.97;;;32.88;63.13
79273;BME280;68718;-19.302;146.788;2023-04-06T03:37:21;100926.81;;;33.55;61.71
79273;BME280;68718;-19.302;146.788;2023-04-06T03:39:46;100921.83;;;33.71;60.07
79273;BME280;68718;-19.302;146.788;2023-04-06T03:42:11;100918.05;;;33.15;61.75
79273;BME280;68718;-19.302;146.788;2023-04-06T03:44:37;100916.97;;;33.03;63.04
79273;BME280;68718;-19.302;146.788;2023-04-06T03:47:02;100917.86;;;32.48;64.56
79273;BME280;68718;-19.302;146.788;2023-04-06T03:49:28;100914.71;;;32.53;65.68
79273;BME280;68718;-19.302;146.788;2023-04-06T03:51:54;100906.91;;;33.57;62.06
79273;BME280;68718;-19.302;146.788;2023-04-06T03:54:18;100907.22;;;32.84;63.53
79273;BME280;68718;-19.302;146.788;2023-04-06T03:56:43;100904.64;;;33.34;62.60
79273;BME280;68718;-19.302;146.788;2023-04-06T03:59:09;100900.59;;;33.13;60.92
79273;BME280;68718;-19.302;146.788;2023-04-06T04:01:34;100895.90;;;33.35;60.39
79273;BME280;68718;-19.302;146.788;2023-04-06T04:03:59;100891.17;;;34.33;56.39
79273;BME280;68718;-19.302;146.788;2023-04-06T04:06:25;100887.84;;;33.85;60.01
79273;BME280;68718;-19.302;146.788;2023-04-06T04:08:50;100885.16;;;33.61;60.35
79273;BME280;68718;-19.302;146.788;2023-04-06T04:11:16;100884.31;;;33.50;61.26
79273;BME280;68718;-19.302;146.788;2023-04-06T04:13:41;100880.28;;;34.09;60.14
79273;BME280;68718;-19.302;146.788;2023-04-06T04:16:06;100876.78;;;33.91;60.15
79273;BME280;68718;-19.302;146.788;2023-04-06T04:18:32;100889.65;;;31.93;63.76
79273;BME280;68718;-19.302;146.788;2023-04-06T04:20:57;100885.19;;;30.84;66.52
79273;BME280;68718;-19.302;146.788;2023-04-06T04:23:22;100888.18;;;31.31;66.09
79273;BME280;68718;-19.302;146.788;2023-04-06T04:25:48;100887.23;;;31.64;64.70
79273;BME280;68718;-19.302;146.788;2023-04-06T04:28:13;100888.88;;;30.71;69.13
79273;BME280;68718;-19.302;146.788;2023-04-06T04:30:38;100886.11;;;30.30;71.11
79273;BME280;68718;-19.302;146.788;2023-04-06T04:33:04;100882.14;;;30.28;71.07
79273;BME280;68718;-19.302;146.788;2023-04-06T04:35:29;100874.99;;;30.41;70.02
79273;BME280;68718;-19.302;146.788;2023-04-06T04:37:55;100870.61;;;30.62;69.57
79273;BME280;68718;-19.302;146.788;2023-04-06T04:40:20;100868.16;;;30.63;68.85
79273;BME280;68718;-19.302;146.788;2023-04-06T04:42:45;100871.73;;;30.29;69.08
79273;BME280;68718;-19.302;146.788;2023-04-06T04:45:11;100871.97;;;30.65;68.45
79273;BME280;68718;-19.302;146.788;2023-04-06T04:47:36;100872.61;;;30.83;69.57
79273;BME280;68718;-19.302;146.788;2023-04-06T04:50:02;100873.26;;;30.70;70.35
79273;BME280;68718;-19.302;146.788;2023-04-06T04:52:27;100869.46;;;30.76;70.16
79273;BME280;68718;-19.302;146.788;2023-04-06T04:54:52;100865.90;;;30.40;70.68
79273;BME280;68718;-19.302;146.788;2023-04-06T04:57:17;100859.37;;;30.08;70.44
79273;BME280;68718;-19.302;146.788;2023-04-06T04:59:44;100856.35;;;30.04;72.70
79273;BME280;68718;-19.302;146.788;2023-04-06T05:02:09;100846.95;;;29.87;73.26
79273;BME280;68718;-19.302;146.788;2023-04-06T05:04:33;100846.17;;;30.13;74.47
79273;BME280;68718;-19.302;146.788;2023-04-06T05:07:05;100842.86;;;30.15;73.78
79273;BME280;68718;-19.302;146.788;2023-04-06T05:09:24;100846.49;;;30.81;74.33
79273;BME280;68718;-19.302;146.788;2023-04-06T05:11:50;100841.60;;;30.93;72.44
79273;BME280;68718;-19.302;146.788;2023-04-06T05:14:15;100840.88;;;30.52;72.67
79273;BME280;68718;-19.302;146.788;2023-04-06T05:16:40;100838.09;;;32.42;66.00
79273;BME280;68718;-19.302;146.788;2023-04-06T05:19:06;100834.92;;;34.27;58.77
79273;BME280;68718;-19.302;146.788;2023-04-06T05:21:31;100836.94;;;35.55;56.11
79273;BME280;68718;-19.302;146.788;2023-04-06T05:23:57;100836.93;;;36.29;53.54
79273;BME280;68718;-19.302;146.788;2023-04-06T05:26:23;100832.01;;;36.45;54.26
79273;BME280;68718;-19.302;146.788;2023-04-06T05:28:47;100823.29;;;35.33;54.39
79273;BME280;68718;-19.302;146.788;2023-04-06T05:31:13;100818.93;;;34.97;54.84
79273;BME280;68718;-19.302;146.788;2023-04-06T05:33:38;100826.58;;;32.61;62.69
79273;BME280;68718;-19.302;146.788;2023-04-06T05:36:04;100824.67;;;32.67;63.77
79273;BME280;68718;-19.302;146.788;2023-04-06T05:38:29;100821.29;;;32.97;63.30
79273;BME280;68718;-19.302;146.788;2023-04-06T05:40:54;100821.30;;;31.95;65.75
79273;BME280;68718;-19.302;146.788;2023-04-06T05:43:19;100824.38;;;32.11;65.13
79273;BME280;68718;-19.302;146.788;2023-04-06T05:45:46;100822.30;;;32.24;64.54
79273;BME280;68718;-19.302;146.788;2023-04-06T05:48:10;100831.75;;;31.99;66.14
79273;BME280;68718;-19.302;146.788;2023-04-06T05:50:36;100832.75;;;32.14;65.52
79273;BME280;68718;-19.302;146.788;2023-04-06T05:53:01;100826.04;;;31.98;64.80
79273;BME280;68718;-19.302;146.788;2023-04-06T05:55:26;100831.78;;;31.06;68.26
79273;BME280;68718;-19.302;146.788;2023-04-06T05:57:53;100835.36;;;31.90;66.44
79273;BME280;68718;-19.302;146.788;2023-04-06T06:00:17;100837.03;;;30.71;70.95
79273;BME280;68718;-19.302;146.788;2023-04-06T06:02:43;100837.63;;;31.15;68.55
79273;BME280;68718;-19.302;146.788;2023-04-06T06:05:09;100837.12;;;30.84;70.37
79273;BME280;68718;-19.302;146.788;2023-04-06T06:07:35;100840.60;;;30.81;70.68
79273;BME280;68718;-19.302;146.788;2023-04-06T06:09:59;100843.73;;;30.81;70.52
79273;BME280;68718;-19.302;146.788;2023-04-06T06:12:24;100839.64;;;31.51;68.71
79273;BME280;68718;-19.302;146.788;2023-04-06T06:14:49;100837.67;;;30.96;71.30
79273;BME280;68718;-19.302;146.788;2023-04-06T06:17:15;100838.99;;;31.05;70.58
79273;BME280;68718;-19.302;146.788;2023-04-06T06:19:40;100838.62;;;30.62;71.35
79273;BME280;68718;-19.302;146.788;2023-04-06T06:22:06;100843.31;;;30.37;72.36
79273;BME280;68718;-19.302;146.788;2023-04-06T06:24:31;100849.00;;;30.05;72.43
79273;BME280;68718;-19.302;146.788;2023-04-06T06:26:56;100854.98;;;30.18;73.14
79273;BME280;68718;-19.302;146.788;2023-04-06T06:29:22;100853.40;;;29.74;73.40
79273;BME280;68718;-19.302;146.788;2023-04-06T06:31:47;100851.22;;;29.49;74.53
79273;BME280;68718;-19.302;146.788;2023-04-06T06:34:13;100853.51;;;29.34;74.80
79273;BME280;68718;-19.302;146.788;2023-04-06T06:36:38;100851.74;;;29.38;75.77
79273;BME280;68718;-19.302;146.788;2023-04-06T06:39:03;100856.07;;;28.72;77.92
79273;BME280;68718;-19.302;146.788;2023-04-06T06:41:28;100854.26;;;28.96;76.94
79273;BME280;68718;-19.302;146.788;2023-04-06T06:43:54;100852.90;;;28.90;76.72
79273;BME280;68718;-19.302;146.788;2023-04-06T06:46:20;100856.96;;;29.39;74.43
79273;BME280;68718;-19.302;146.788;2023-04-06T06:48:44;100861.33;;;29.54;76.25
79273;BME280;68718;-19.302;146.788;2023-04-06T06:51:10;100857.78;;;29.00;77.91
79273;BME280;68718;-19.302;146.788;2023-04-06T06:53:35;100855.75;;;29.48;76.40
79273;BME280;68718;-19.302;146.788;2023-04-06T06:56:01;100856.30;;;29.20;77.35
79273;BME280;68718;-19.302;146.788;2023-04-06T06:58:26;100859.58;;;29.52;75.92
79273;BME280;68718;-19.302;146.788;2023-04-06T07:00:55;100859.94;;;29.18;76.32
79273;BME280;68718;-19.302;146.788;2023-04-06T07:03:17;100859.59;;;29.37;76.58
79273;BME280;68718;-19.302;146.788;2023-04-06T07:05:46;100860.46;;;28.87;77.51
79273;BME280;68718;-19.302;146.788;2023-04-06T07:08:07;100865.75;;;28.85;79.42
79273;BME280;68718;-19.302;146.788;2023-04-06T07:10:33;100866.62;;;28.70;78.89
79273;BME280;68718;-19.302;146.788;2023-04-06T07:12:58;100867.90;;;29.16;78.08
79273;BME280;68718;-19.302;146.788;2023-04-06T07:15:24;100861.03;;;28.93;77.55
79273;BME280;68718;-19.302;146.788;2023-04-06T07:17:49;100862.77;;;29.29;76.53
79273;BME280;68718;-19.302;146.788;2023-04-06T07:20:15;100870.07;;;28.75;78.16
79273;BME280;68718;-19.302;146.788;2023-04-06T07:22:42;100874.53;;;28.84;77.37
79273;BME280;68718;-19.302;146.788;2023-04-06T07:25:06;100873.79;;;28.83;77.32
79273;BME280;68718;-19.302;146.788;2023-04-06T07:27:31;100874.72;;;28.64;78.67
79273;BME280;68718;-19.302;146.788;2023-04-06T07:29:56;100878.34;;;28.79;78.09
79273;BME280;68718;-19.302;146.788;2023-04-06T07:32:22;100879.26;;;28.61;78.13
79273;BME280;68718;-19.302;146.788;2023-04-06T07:34:47;100878.86;;;28.03;79.73
79273;BME280;68718;-19.302;146.788;2023-04-06T07:37:12;100883.23;;;27.71;81.47
79273;BME280;68718;-19.302;146.788;2023-04-06T07:39:37;100880.12;;;27.79;82.10
79273;BME280;68718;-19.302;146.788;2023-04-06T07:42:03;100875.81;;;28.15;81.33
79273;BME280;68718;-19.302;146.788;2023-04-06T07:44:28;100873.03;;;27.90;81.73
79273;BME280;68718;-19.302;146.788;2023-04-06T07:46:54;100869.37;;;28.30;80.73
79273;BME280;68718;-19.302;146.788;2023-04-06T07:49:19;100872.60;;;28.29;80.52
79273;BME280;68718;-19.302;146.788;2023-04-06T07:51:44;100876.40;;;27.70;82.49
79273;BME280;68718;-19.302;146.788;2023-04-06T07:54:10;100873.76;;;27.89;80.70
79273;BME280;68718;-19.302;146.788;2023-04-06T07:56:36;100876.94;;;27.48;81.65
79273;BME280;68718;-19.302;146.788;2023-04-06T07:59:00;100873.59;;;27.87;81.13
79273;BME280;68718;-19.302;146.788;2023-04-06T08:01:28;100868.24;;;28.08;80.87
79273;BME280;68718;-19.302;146.788;2023-04-06T08:03:52;100870.85;;;28.08;81.64
79273;BME280;68718;-19.302;146.788;2023-04-06T08:06:17;100875.26;;;27.99;81.79
79273;BME280;68718;-19.302;146.788;2023-04-06T08:08:42;100884.75;;;27.79;82.31
79273;BME280;68718;-19.302;146.788;2023-04-06T08:11:07;100890.48;;;27.97;81.77
79273;BME280;68718;-19.302;146.788;2023-04-06T08:13:34;100890.28;;;27.98;81.03
79273;BME280;68718;-19.302;146.788;2023-04-06T08:15:59;100888.99;;;28.10;79.73
79273;BME280;68718;-19.302;146.788;2023-04-06T08:18:24;100889.48;;;28.41;79.05
79273;BME280;68718;-19.302;146.788;2023-04-06T08:20:49;100889.15;;;28.44;78.77
79273;BME280;68718;-19.302;146.788;2023-04-06T08:23:14;100895.50;;;27.92;79.27
79273;BME280;68718;-19.302;146.788;2023-04-06T08:25:39;100896.92;;;28.05;79.97
79273;BME280;68718;-19.302;146.788;2023-04-06T08:28:05;100903.08;;;27.99;79.33
79273;BME280;68718;-19.302;146.788;2023-04-06T08:30:31;100904.48;;;28.34;78.77
79273;BME280;68718;-19.302;146.788;2023-04-06T08:32:56;100908.73;;;28.07;79.48
79273;BME280;68718;-19.302;146.788;2023-04-06T08:35:22;100911.32;;;28.28;79.44
79273;BME280;68718;-19.302;146.788;2023-04-06T08:37:47;100911.38;;;28.15;79.49
79273;BME280;68718;-19.302;146.788;2023-04-06T08:40:13;100917.60;;;27.86;80.57
79273;BME280;68718;-19.302;146.788;2023-04-06T08:42:40;100917.43;;;28.29;78.97
79273;BME280;68718;-19.302;146.788;2023-04-06T08:45:02;100921.19;;;27.73;80.24
79273;BME280;68718;-19.302;146.788;2023-04-06T08:47:29;100928.86;;;28.10;81.77
79273;BME280;68718;-19.302;146.788;2023-04-06T08:49:54;100938.53;;;27.93;81.26
79273;BME280;68718;-19.302;146.788;2023-04-06T08:52:19;100937.68;;;27.98;80.07
79273;BME280;68718;-19.302;146.788;2023-04-06T08:54:44;100938.66;;;28.22;79.55
79273;BME280;68718;-19.302;146.788;2023-04-06T08:57:10;100943.73;;;28.51;79.34
79273;BME280;68718;-19.302;146.788;2023-04-06T08:59:35;100948.23;;;28.79;76.54
79273;BME280;68718;-19.302;146.788;2023-04-06T09:02:00;100949.32;;;29.23;75.36
79273;BME280;68718;-19.302;146.788;2023-04-06T09:04:25;100955.11;;;28.93;77.41
79273;BME280;68718;-19.302;146.788;2023-04-06T09:06:50;100955.73;;;28.81;77.37
79273;BME280;68718;-19.302;146.788;2023-04-06T09:09:16;100957.51;;;28.74;78.23
79273;BME280;68718;-19.302;146.788;2023-04-06T09:11:46;100959.32;;;28.23;79.24
79273;BME280;68718;-19.302;146.788;2023-04-06T09:14:06;100964.10;;;28.54;78.64
79273;BME280;68718;-19.302;146.788;2023-04-06T09:16:39;100963.18;;;28.16;80.00
79273;BME280;68718;-19.302;146.788;2023-04-06T09:19:04;100962.82;;;28.60;78.98
79273;BME280;68718;-19.302;146.788;2023-04-06T09:21:22;100969.54;;;27.83;82.55
79273;BME280;68718;-19.302;146.788;2023-04-06T09:23:57;100970.79;;;27.44;83.04
79273;BME280;68718;-19.302;146.788;2023-04-06T09:26:15;100971.81;;;27.57;82.67
79273;BME280;68718;-19.302;146.788;2023-04-06T09:28:46;100975.37;;;28.16;80.73
79273;BME280;68718;-19.302;146.788;2023-04-06T09:31:04;100980.26;;;28.16;81.13
79273;BME280;68718;-19.302;146.788;2023-04-06T09:33:29;100980.95;;;28.29;81.42
79273;BME280;68718;-19.302;146.788;2023-04-06T09:35:55;100979.33;;;27.64;83.43
79273;BME280;68718;-19.302;146.788;2023-04-06T09:38:20;100975.88;;;28.07;81.28
79273;BME280;68718;-19.302;146.788;2023-04-06T09:40:52;100975.21;;;27.82;82.09
79273;BME280;68718;-19.302;146.788;2023-04-06T09:43:11;100978.54;;;27.88;81.03
79273;BME280;68718;-19.302;146.788;2023-04-06T09:45:36;100982.74;;;27.61;82.63
79273;BME280;68718;-19.302;146.788;2023-04-06T09:48:02;100986.43;;;28.27;80.47
79273;BME280;68718;-19.302;146.788;2023-04-06T09:50:28;100990.41;;;27.97;80.45
79273;BME280;68718;-19.302;146.788;2023-04-06T09:52:54;100990.80;;;28.32;80.45
79273;BME280;68718;-19.302;146.788;2023-04-06T09:55:25;100997.94;;;27.96;80.60
79273;BME280;68718;-19.302;146.788;2023-04-06T09:57:48;101000.05;;;27.45;83.06
79273;BME280;68718;-19.302;146.788;2023-04-06T10:00:11;100999.31;;;27.78;83.21
79273;BME280;68718;-19.302;146.788;2023-04-06T10:02:39;101004.73;;;27.27;84.19
79273;BME280;68718;-19.302;146.788;2023-04-06T10:05:05;101006.04;;;27.31;82.47
79273;BME280;68718;-19.302;146.788;2023-04-06T10:07:27;101010.81;;;27.49;83.54
79273;BME280;68718;-19.302;146.788;2023-04-06T10:09:50;101007.58;;;27.42;84.30
79273;BME280;68718;-19.302;146.788;2023-04-06T10:12:16;101010.12;;;27.63;83.91
79273;BME280;68718;-19.302;146.788;2023-04-06T10:14:41;101014.85;;;27.46;84.19
79273;BME280;68718;-19.302;146.788;2023-04-06T10:17:06;101015.86;;;28.14;81.94
79273;BME280;68718;-19.302;146.788;2023-04-06T10:19:39;101015.08;;;27.45;84.53
79273;BME280;68718;-19.302;146.788;2023-04-06T10:21:59;101013.18;;;27.63;83.42
79273;BME280;68718;-19.302;146.788;2023-04-06T10:24:22;101014.81;;;27.94;81.58
79273;BME280;68718;-19.302;146.788;2023-04-06T10:29:14;101023.66;;;27.53;82.24
79273;BME280;68718;-19.302;146.788;2023-04-06T10:31:43;101025.47;;;27.59;81.25
79273;BME280;68718;-19.302;146.788;2023-04-06T10:34:04;101032.19;;;27.81;81.28
79273;BME280;68718;-19.302;146.788;2023-04-06T10:36:32;101038.27;;;27.68;82.80
79273;BME280;68718;-19.302;146.788;2023-04-06T10:38:58;101042.66;;;27.59;82.80
79273;BME280;68718;-19.302;146.788;2023-04-06T10:41:20;101044.89;;;27.92;80.36
79273;BME280;68718;-19.302;146.788;2023-04-06T10:43:45;101050.35;;;28.33;79.18
79273;BME280;68718;-19.302;146.788;2023-04-06T10:46:11;101048.16;;;28.31;79.78
79273;BME280;68718;-19.302;146.788;2023-04-06T10:48:40;101048.11;;;27.76;82.26
79273;BME280;68718;-19.302;146.788;2023-04-06T10:51:08;101045.28;;;27.97;81.51
79273;BME280;68718;-19.302;146.788;2023-04-06T10:53:28;101047.29;;;27.41;82.62
79273;BME280;68718;-19.302;146.788;2023-04-06T10:55:54;101044.84;;;28.09;81.46
79273;BME280;68718;-19.302;146.788;2023-04-06T10:58:18;101051.25;;;27.63;82.00
79273;BME280;68718;-19.302;146.788;2023-04-06T11:00:46;101050.70;;;27.21;83.79
79273;BME280;68718;-19.302;146.788;2023-04-06T11:03:09;101054.92;;;27.80;83.19
79273;BME280;68718;-19.302;146.788;2023-04-06T11:05:34;101056.98;;;27.41;83.61
79273;BME280;68718;-19.302;146.788;2023-04-06T11:07:59;101055.42;;;27.66;82.45
79273;BME280;68718;-19.302;146.788;2023-04-06T11:10:25;101055.54;;;28.31;81.01
79273;BME280;68718;-19.302;146.788;2023-04-06T11:12:54;101057.32;;;27.56;83.56
79273;BME280;68718;-19.302;146.788;2023-04-06T11:15:16;101052.88;;;28.48;80.69
79273;BME280;68718;-19.302;146.788;2023-04-06T11:17:41;101051.92;;;27.85;82.65
79273;BME280;68718;-19.302;146.788;2023-04-06T11:20:11;101057.19;;;28.23;81.94
79273;BME280;68718;-19.302;146.788;2023-04-06T11:22:32;101059.96;;;28.27;81.16
79273;BME280;68718;-19.302;146.788;2023-04-06T11:25:06;101061.17;;;28.05;81.95
79273;BME280;68718;-19.302;146.788;2023-04-06T11:27:23;101060.65;;;27.55;82.63
79273;BME280;68718;-19.302;146.788;2023-04-06T11:29:48;101062.33;;;28.04;82.46
79273;BME280;68718;-19.302;146.788;2023-04-06T11:32:21;101064.59;;;27.71;83.09
79273;BME280;68718;-19.302;146.788;2023-04-06T11:34:39;101066.28;;;27.85;82.59
79273;BME280;68718;-19.302;146.788;2023-04-06T11:37:07;101062.57;;;27.70;81.42
79273;BME280;68718;-19.302;146.788;2023-04-06T11:39:30;101061.96;;;27.72;81.40
79273;BME280;68718;-19.302;146.788;2023-04-06T11:41:57;101061.59;;;27.59;81.46
79273;BME280;68718;-19.302;146.788;2023-04-06T11:44:32;101059.55;;;28.30;79.34
79273;BME280;68718;-19.302;146.788;2023-04-06T11:46:53;101060.86;;;28.12;80.31
79273;BME280;68718;-19.302;146.788;2023-04-06T11:49:16;101063.28;;;28.79;78.15
79273;BME280;68718;-19.302;146.788;2023-04-06T11:51:37;101064.77;;;28.14;80.18
79273;BME280;68718;-19.302;146.788;2023-04-06T11:54:01;101066.73;;;28.02;79.94
79273;BME280;68718;-19.302;146.788;2023-04-06T11:56:28;101064.68;;;27.94;81.20
79273;BME280;68718;-19.302;146.788;2023-04-06T11:58:53;101065.60;;;28.37;80.43
79273;BME280;68718;-19.302;146.788;2023-04-06T12:01:18;101063.54;;;28.11;80.33
79273;BME280;68718;-19.302;146.788;2023-04-06T12:03:44;101062.67;;;28.61;79.17
79273;BME280;68718;-19.302;146.788;2023-04-06T12:06:08;101063.35;;;27.68;82.03
79273;BME280;68718;-19.302;146.788;2023-04-06T12:08:33;101065.61;;;28.29;81.06
79273;BME280;68718;-19.302;146.788;2023-04-06T12:10:59;101070.94;;;27.62;83.33
79273;BME280;68718;-19.302;146.788;2023-04-06T12:13:24;101068.59;;;27.96;81.57